sensor_id;sensor_type;location;lat;lon;timestamp;pressure;altitude;pressure_sealevel;temperature;humidity
64023;BME280;50264;52.088;5.296;2023-02-15T00:00:07;102903.0;;;2.02;89.96
64023;BME280;50264;52.088;5.296;2023-02-15T00:01:45;102904.0;;;1.91;90.79
64023;BME280;50264;52.088;5.296;2023-02-15T00:03:22;102906.0;;;1.78;91.2
64023;BME280;50264;52.088;5.296;2023-02-15T00:04:58;102902.0;;;1.73;91.46
64023;BME280;50264;52.088;5.296;2023-02-15T00:08:11;102892.0;;;1.89;90.87
64023;BME280;50264;52.088;5.296;2023-02-15T00:09:48;102892.0;;;1.92;90.55
64023;BME280;50264;52.088;5.296;2023-02-15T00:11:39;102892.0;;;1.84;90.94
64023;BME280;50264;52.088;5.296;2023-02-15T00:14:53;102894.0;;;1.74;90.99
64023;BME280;50264;52.088;5.296;2023-02-15T00:16:32;102895.0;;;1.59;91.27
64023;BME280;50264;52.088;5.296;2023-02-15T00:18:08;102897.0;;;1.57;92.06
64023;BME280;50264;52.088;5.296;2023-02-15T00:19:44;102901.0;;;1.53;91.91
64023;BME280;50264;52.088;5.296;2023-02-15T00:22:57;102900.0;;;1.53;92.22
64023;BME280;50264;52.088;5.296;2023-02-15T00:24:34;102896.0;;;1.49;91.73
64023;BME280;50264;52.088;5.296;2023-02-15T00:26:11;102892.0;;;1.62;91.77
64023;BME280;50264;52.088;5.296;2023-02-15T00:29:26;102890.00000000001;;;1.57;91.25
64023;BME280;50264;52.088;5.296;2023-02-15T00:31:04;102892.0;;;1.58;91.42
64023;BME280;50264;52.088;5.296;2023-02-15T00:32:40;102897.0;;;1.46;91.62
64023;BME280;50264;52.088;5.296;2023-02-15T00:34:18;102883.99999999999;;;1.73;91.43
64023;BME280;50264;52.088;5.296;2023-02-15T00:37:33;102889.00000000001;;;1.76;90.38
64023;BME280;50264;52.088;5.296;2023-02-15T00:39:10;102883.99999999999;;;1.56;90.7
64023;BME280;50264;52.088;5.296;2023-02-15T00:40:52;102882.0;;;1.45;91.1
64023;BME280;50264;52.088;5.296;2023-02-15T00:44:05;102881.0;;;1.4;90.96
64023;BME280;50264;52.088;5.296;2023-02-15T00:45:44;102883.0;;;1.29;91.58
64023;BME280;50264;52.088;5.296;2023-02-15T00:47:21;102883.0;;;1.31;92.02
64023;BME280;50264;52.088;5.296;2023-02-15T00:48:57;102879.0;;;1.29;91.94
64023;BME280;50264;52.088;5.296;2023-02-15T00:52:09;102880.0;;;1.16;91.66
64023;BME280;50264;52.088;5.296;2023-02-15T00:53:46;102882.0;;;1.11;92.01
64023;BME280;50264;52.088;5.296;2023-02-15T00:55:22;102873.0;;;1.05;92.56
64023;BME280;50264;52.088;5.296;2023-02-15T00:58:35;102873.0;;;1.15;92.68
64023;BME280;50264;52.088;5.296;2023-02-15T01:00:13;102872.0;;;1.19;91.88
64023;BME280;50264;52.088;5.296;2023-02-15T01:01:49;102873.0;;;1.07;92.01
64023;BME280;50264;52.088;5.296;2023-02-15T01:05:01;102873.0;;;0.99;92.61
64023;BME280;50264;52.088;5.296;2023-02-15T01:06:37;102882.0;;;0.99;92.69
64023;BME280;50264;52.088;5.296;2023-02-15T01:08:14;102877.0;;;0.97;93.01
64023;BME280;50264;52.088;5.296;2023-02-15T01:09:51;102877.0;;;0.98;92.93
64023;BME280;50264;52.088;5.296;2023-02-15T01:13:03;102874.0;;;1.12;92.47
64023;BME280;50264;52.088;5.296;2023-02-15T01:14:40;102872.0;;;1.12;91.76
64023;BME280;50264;52.088;5.296;2023-02-15T01:16:17;102878.0;;;0.99;92.04
64023;BME280;50264;52.088;5.296;2023-02-15T01:19:30;102871.0;;;0.94;92.47
64023;BME280;50264;52.088;5.296;2023-02-15T01:21:10;102870.0;;;0.95;92.25
64023;BME280;50264;52.088;5.296;2023-02-15T01:22:50;102863.00000000001;;;1.06;92.11
64023;BME280;50264;52.088;5.296;2023-02-15T01:26:02;102858.0;;;1.05;91.83
64023;BME280;50264;52.088;5.296;2023-02-15T01:27:39;102858.99999999999;;;0.97;91.89
64023;BME280;50264;52.088;5.296;2023-02-15T01:29:15;102853.0;;;1.0;92.28
64023;BME280;50264;52.088;5.296;2023-02-15T01:30:51;102850.0;;;1.06;91.89
64023;BME280;50264;52.088;5.296;2023-02-15T01:34:04;102850.0;;;1.07;91.6
64023;BME280;50264;52.088;5.296;2023-02-15T01:35:40;102845.0;;;0.96;91.79
64023;BME280;50264;52.088;5.296;2023-02-15T01:37:16;102842.0;;;0.87;92.06
64023;BME280;50264;52.088;5.296;2023-02-15T01:40:28;102846.0;;;0.83;92.54
64023;BME280;50264;52.088;5.296;2023-02-15T01:42:08;102845.0;;;0.79;92.78
64023;BME280;50264;52.088;5.296;2023-02-15T01:43:48;102844.0;;;0.68;92.84
64023;BME280;50264;52.088;5.296;2023-02-15T01:45:27;102833.99999999999;;;1.03;92.57
64023;BME280;50264;52.088;5.296;2023-02-15T01:48:44;102833.0;;;1.14;90.96
64023;BME280;50264;52.088;5.296;2023-02-15T01:50:26;102833.0;;;1.0;91.07
64023;BME280;50264;52.088;5.296;2023-02-15T01:52:06;102831.0;;;0.89;91.46
64023;BME280;50264;52.088;5.296;2023-02-15T01:55:30;102830.0;;;0.95;91.63
64023;BME280;50264;52.088;5.296;2023-02-15T01:57:11;102830.0;;;0.99;91.0
64023;BME280;50264;52.088;5.296;2023-02-15T01:58:54;102827.0;;;0.85;91.54
64023;BME280;50264;52.088;5.296;2023-02-15T02:00:32;102828.0;;;0.88;91.76
64023;BME280;50264;52.088;5.296;2023-02-15T02:02:09;102825.0;;;0.82;91.51
64023;BME280;50264;52.088;5.296;2023-02-15T02:05:34;102825.0;;;0.73;91.84
64023;BME280;50264;52.088;5.296;2023-02-15T02:07:13;102824.0;;;0.79;92.02
64023;BME280;50264;52.088;5.296;2023-02-15T02:08:51;102820.0;;;0.82;92.22
64023;BME280;50264;52.088;5.296;2023-02-15T02:12:04;102823.0;;;0.75;91.98
64023;BME280;50264;52.088;5.296;2023-02-15T02:13:42;102819.0;;;0.75;92.3
64023;BME280;50264;52.088;5.296;2023-02-15T02:15:23;102818.0;;;0.69;92.28
64023;BME280;50264;52.088;5.296;2023-02-15T02:17:10;102806.0;;;0.76;92.25
64023;BME280;50264;52.088;5.296;2023-02-15T02:19:04;102807.0;;;0.74;92.3
64023;BME280;50264;52.088;5.296;2023-02-15T02:23:24;102799.0;;;0.74;92.62
64023;BME280;50264;52.088;5.296;2023-02-15T02:33:02;102795.0;;;0.72;92.37
64023;BME280;50264;52.088;5.296;2023-02-15T02:35:45;102791.00000000001;;;0.64;92.72
64023;BME280;50264;52.088;5.296;2023-02-15T02:39:22;102786.99999999999;;;0.68;92.17
64023;BME280;50264;52.088;5.296;2023-02-15T02:41:12;102780.0;;;0.75;91.87
64023;BME280;50264;52.088;5.296;2023-02-15T02:42:56;102779.0;;;0.78;91.73
64023;BME280;50264;52.088;5.296;2023-02-15T02:44:41;102776.0;;;0.81;91.64
64023;BME280;50264;52.088;5.296;2023-02-15T02:46:22;102780.0;;;0.75;91.79
64023;BME280;50264;52.088;5.296;2023-02-15T02:49:43;102778.0;;;0.69;92.04
64023;BME280;50264;52.088;5.296;2023-02-15T02:51:21;102776.0;;;0.63;92.15
64023;BME280;50264;52.088;5.296;2023-02-15T02:52:59;102767.0;;;0.63;92.5
64023;BME280;50264;52.088;5.296;2023-02-15T02:54:35;102773.0;;;0.62;92.19
64023;BME280;50264;52.088;5.296;2023-02-15T02:58:01;102774.0;;;0.65;92.43
64023;BME280;50264;52.088;5.296;2023-02-15T02:59:43;102765.00000000001;;;0.64;91.75
64023;BME280;50264;52.088;5.296;2023-02-15T03:01:27;102770.0;;;0.67;92.09
64023;BME280;50264;52.088;5.296;2023-02-15T03:03:11;102757.0;;;0.86;91.54
64023;BME280;50264;52.088;5.296;2023-02-15T03:05:02;102764.00000000001;;;0.94;91.03
64023;BME280;50264;52.088;5.296;2023-02-15T03:08:32;102761.99999999999;;;0.85;90.47
64023;BME280;50264;52.088;5.296;2023-02-15T03:10:13;102756.0;;;0.87;90.56
64023;BME280;50264;52.088;5.296;2023-02-15T03:11:49;102754.0;;;0.97;90.45
64023;BME280;50264;52.088;5.296;2023-02-15T03:13:27;102748.0;;;1.1;89.97
64023;BME280;50264;52.088;5.296;2023-02-15T03:16:47;102747.0;;;0.9;89.96
64023;BME280;50264;52.088;5.296;2023-02-15T03:18:30;102744.0;;;0.84;90.12
64023;BME280;50264;52.088;5.296;2023-02-15T03:20:17;102742.0;;;0.75;90.74
64023;BME280;50264;52.088;5.296;2023-02-15T03:22:06;102744.0;;;0.72;90.67
64023;BME280;50264;52.088;5.296;2023-02-15T03:23:45;102741.00000000001;;;0.64;91.48
64023;BME280;50264;52.088;5.296;2023-02-15T03:27:06;102741.00000000001;;;0.64;91.59
64023;BME280;50264;52.088;5.296;2023-02-15T03:28:47;102742.0;;;0.58;91.62
64023;BME280;50264;52.088;5.296;2023-02-15T03:30:25;102741.00000000001;;;0.53;92.31
64023;BME280;50264;52.088;5.296;2023-02-15T03:32:07;102740.00000000001;;;0.52;91.67
64023;BME280;50264;52.088;5.296;2023-02-15T03:35:33;102740.00000000001;;;0.46;92.12
64023;BME280;50264;52.088;5.296;2023-02-15T03:37:25;102736.99999999999;;;0.44;92.09
64023;BME280;50264;52.088;5.296;2023-02-15T03:39:10;102732.0;;;0.41;92.19
64023;BME280;50264;52.088;5.296;2023-02-15T03:41:23;102730.0;;;0.53;92.23
64023;BME280;50264;52.088;5.296;2023-02-15T03:43:09;102725.0;;;0.66;91.51
64023;BME280;50264;52.088;5.296;2023-02-15T03:44:53;102724.0;;;0.79;91.03
64023;BME280;50264;52.088;5.296;2023-02-15T03:48:18;102732.0;;;0.74;90.41
64023;BME280;50264;52.088;5.296;2023-02-15T03:50:00;102733.99999999999;;;0.58;91.14
64023;BME280;50264;52.088;5.296;2023-02-15T03:51:43;102732.0;;;0.49;91.65
64023;BME280;50264;52.088;5.296;2023-02-15T03:53:22;102728.0;;;0.45;92.11
64023;BME280;50264;52.088;5.296;2023-02-15T03:56:40;102727.0;;;0.49;91.73
64023;BME280;50264;52.088;5.296;2023-02-15T04:02:31;102727.0;;;0.37;91.68
64023;BME280;50264;52.088;5.296;2023-02-15T04:04:16;102721.0;;;0.3;92.05
64023;BME280;50264;52.088;5.296;2023-02-15T04:05:55;102719.0;;;0.34;92.48
64023;BME280;50264;52.088;5.296;2023-02-15T04:10:56;102717.0;;;0.33;92.75
64023;BME280;50264;52.088;5.296;2023-02-15T04:12:42;102709.99999999999;;;0.41;91.66
64023;BME280;50264;52.088;5.296;2023-02-15T04:16:07;102708.99999999999;;;0.38;91.73
64023;BME280;50264;52.088;5.296;2023-02-15T04:17:43;102716.00000000001;;;0.37;91.97
64023;BME280;50264;52.088;5.296;2023-02-15T04:25:18;102714.00000000001;;;0.37;91.93
64023;BME280;50264;52.088;5.296;2023-02-15T04:26:56;102715.00000000001;;;0.31;92.43
64023;BME280;50264;52.088;5.296;2023-02-15T04:30:11;102715.00000000001;;;0.41;92.45
64023;BME280;50264;52.088;5.296;2023-02-15T04:31:49;102716.00000000001;;;0.35;92.09
64023;BME280;50264;52.088;5.296;2023-02-15T04:33:25;102717.0;;;0.37;92.44
64023;BME280;50264;52.088;5.296;2023-02-15T04:35:02;102717.0;;;0.36;92.57
64023;BME280;50264;52.088;5.296;2023-02-15T04:38:16;102708.0;;;0.33;92.23
64023;BME280;50264;52.088;5.296;2023-02-15T04:39:52;102706.0;;;0.36;92.51
64023;BME280;50264;52.088;5.296;2023-02-15T04:41:29;102707.0;;;0.41;92.0
64023;BME280;50264;52.088;5.296;2023-02-15T04:44:41;102706.0;;;0.45;91.68
64023;BME280;50264;52.088;5.296;2023-02-15T04:46:19;102695.0;;;0.48;91.51
64023;BME280;50264;52.088;5.296;2023-02-15T04:47:55;102699.0;;;0.61;91.04
64023;BME280;50264;52.088;5.296;2023-02-15T04:49:31;102693.0;;;0.43;91.49
64023;BME280;50264;52.088;5.296;2023-02-15T04:52:43;102690.00000000001;;;0.31;91.72
64023;BME280;50264;52.088;5.296;2023-02-15T04:54:20;102690.00000000001;;;0.39;91.67
64023;BME280;50264;52.088;5.296;2023-02-15T04:55:56;102689.00000000001;;;0.37;91.31
64023;BME280;50264;52.088;5.296;2023-02-15T04:59:09;102689.00000000001;;;0.3;91.71
64023;BME280;50264;52.088;5.296;2023-02-15T05:00:46;102689.00000000001;;;0.26;91.65
64023;BME280;50264;52.088;5.296;2023-02-15T05:02:22;102691.00000000001;;;0.24;91.88
64023;BME280;50264;52.088;5.296;2023-02-15T05:05:34;102684.99999999999;;;0.31;92.06
64023;BME280;50264;52.088;5.296;2023-02-15T05:07:10;102683.0;;;0.32;92.39
64023;BME280;50264;52.088;5.296;2023-02-15T05:08:46;102684.99999999999;;;0.35;91.85
64023;BME280;50264;52.088;5.296;2023-02-15T05:11:59;102683.0;;;0.34;92.32
64023;BME280;50264;52.088;5.296;2023-02-15T05:13:35;102683.0;;;0.36;92.25
64023;BME280;50264;52.088;5.296;2023-02-15T05:15:11;102678.0;;;0.48;91.56
64023;BME280;50264;52.088;5.296;2023-02-15T05:16:47;102675.0;;;0.48;91.24
64023;BME280;50264;52.088;5.296;2023-02-15T05:19:59;102678.0;;;0.42;91.36
64023;BME280;50264;52.088;5.296;2023-02-15T05:21:36;102674.0;;;0.45;91.01
64023;BME280;50264;52.088;5.296;2023-02-15T05:23:12;102673.0;;;0.42;91.14
64023;BME280;50264;52.088;5.296;2023-02-15T05:28:58;102669.0;;;0.37;91.41
64023;BME280;50264;52.088;5.296;2023-02-15T05:30:34;102668.0;;;0.38;91.85
64023;BME280;50264;52.088;5.296;2023-02-15T05:32:12;102668.0;;;0.4;91.13
64023;BME280;50264;52.088;5.296;2023-02-15T05:33:49;102669.0;;;0.32;91.12
64023;BME280;50264;52.088;5.296;2023-02-15T05:37:02;102667.0;;;0.33;91.04
64023;BME280;50264;52.088;5.296;2023-02-15T05:38:38;102670.0;;;0.31;91.13
64023;BME280;50264;52.088;5.296;2023-02-15T05:40:15;102675.0;;;0.23;91.47
64023;BME280;50264;52.088;5.296;2023-02-15T05:41:51;102674.0;;;0.29;91.75
64023;BME280;50264;52.088;5.296;2023-02-15T05:45:06;102677.0;;;0.25;92.09
64023;BME280;50264;52.088;5.296;2023-02-15T05:46:42;102681.0;;;0.23;92.09
64023;BME280;50264;52.088;5.296;2023-02-15T05:48:20;102690.00000000001;;;0.29;92.57
64023;BME280;50264;52.088;5.296;2023-02-15T05:51:34;102681.0;;;0.39;91.77
64023;BME280;50264;52.088;5.296;2023-02-15T05:53:11;102686.99999999999;;;0.37;91.63
64023;BME280;50264;52.088;5.296;2023-02-15T05:54:46;102676.0;;;0.38;91.28
64023;BME280;50264;52.088;5.296;2023-02-15T05:57:59;102676.0;;;0.46;90.93
64023;BME280;50264;52.088;5.296;2023-02-15T05:59:35;102672.0;;;0.39;91.05
64023;BME280;50264;52.088;5.296;2023-02-15T06:01:14;102669.0;;;0.41;90.74
64023;BME280;50264;52.088;5.296;2023-02-15T06:02:50;102675.0;;;0.36;90.9
64023;BME280;50264;52.088;5.296;2023-02-15T06:06:04;102669.0;;;0.41;90.85
64023;BME280;50264;52.088;5.296;2023-02-15T06:07:42;102667.0;;;0.33;91.05
64023;BME280;50264;52.088;5.296;2023-02-15T06:09:19;102666.00000000001;;;0.35;91.57
64023;BME280;50264;52.088;5.296;2023-02-15T06:12:32;102669.0;;;0.38;91.5
64023;BME280;50264;52.088;5.296;2023-02-15T06:14:08;102668.0;;;0.33;91.34
64023;BME280;50264;52.088;5.296;2023-02-15T06:15:44;102665.00000000001;;;0.31;91.73
64023;BME280;50264;52.088;5.296;2023-02-15T06:17:21;102667.0;;;0.37;91.46
64023;BME280;50264;52.088;5.296;2023-02-15T06:20:36;102658.99999999999;;;0.41;91.29
64023;BME280;50264;52.088;5.296;2023-02-15T06:22:14;102661.99999999999;;;0.41;91.61
64023;BME280;50264;52.088;5.296;2023-02-15T06:23:50;102655.0;;;0.37;91.59
64023;BME280;50264;52.088;5.296;2023-02-15T06:27:02;102667.0;;;0.38;91.64
64023;BME280;50264;52.088;5.296;2023-02-15T06:28:39;102664.00000000001;;;0.38;91.52
64023;BME280;50264;52.088;5.296;2023-02-15T06:30:15;102657.0;;;0.31;91.47
64023;BME280;50264;52.088;5.296;2023-02-15T06:33:27;102659.99999999999;;;0.3;91.43
64023;BME280;50264;52.088;5.296;2023-02-15T06:35:03;102666.00000000001;;;0.21;91.65
64023;BME280;50264;52.088;5.296;2023-02-15T06:36:40;102665.00000000001;;;0.19;92.21
64023;BME280;50264;52.088;5.296;2023-02-15T06:38:17;102658.99999999999;;;0.29;91.97
64023;BME280;50264;52.088;5.296;2023-02-15T06:41:29;102666.00000000001;;;0.41;91.65
64023;BME280;50264;52.088;5.296;2023-02-15T06:43:06;102658.0;;;0.4;91.42
64023;BME280;50264;52.088;5.296;2023-02-15T06:44:42;102658.0;;;0.39;91.82
64023;BME280;50264;52.088;5.296;2023-02-15T06:47:54;102657.0;;;0.32;91.29
64023;BME280;50264;52.088;5.296;2023-02-15T06:49:30;102658.0;;;0.43;91.38
64023;BME280;50264;52.088;5.296;2023-02-15T06:51:06;102657.0;;;0.51;91.39
64023;BME280;50264;52.088;5.296;2023-02-15T06:54:18;102654.0;;;0.38;91.36
64023;BME280;50264;52.088;5.296;2023-02-15T06:56:00;102655.0;;;0.25;91.82
64023;BME280;50264;52.088;5.296;2023-02-15T06:57:37;102652.0;;;0.31;91.99
64023;BME280;50264;52.088;5.296;2023-02-15T06:59:13;102653.0;;;0.43;92.05
64023;BME280;50264;52.088;5.296;2023-02-15T07:02:27;102650.0;;;0.57;91.85
64023;BME280;50264;52.088;5.296;2023-02-15T07:04:04;102653.0;;;0.66;91.45
64023;BME280;50264;52.088;5.296;2023-02-15T07:05:39;102657.0;;;0.67;91.13
64023;BME280;50264;52.088;5.296;2023-02-15T07:08:52;102658.99999999999;;;0.73;90.43
64023;BME280;50264;52.088;5.296;2023-02-15T07:10:28;102657.0;;;0.67;90.55
64023;BME280;50264;52.088;5.296;2023-02-15T07:13:09;102656.0;;;0.6;91.2
64023;BME280;50264;52.088;5.296;2023-02-15T07:14:45;102656.0;;;0.63;91.73
64023;BME280;50264;52.088;5.296;2023-02-15T07:16:21;102658.99999999999;;;0.7;91.28
64023;BME280;50264;52.088;5.296;2023-02-15T07:19:34;102657.0;;;0.6;91.4
64023;BME280;50264;52.088;5.296;2023-02-15T07:21:10;102654.0;;;0.56;91.81
64023;BME280;50264;52.088;5.296;2023-02-15T07:22:46;102652.0;;;0.59;92.17
64023;BME280;50264;52.088;5.296;2023-02-15T07:24:23;102643.0;;;0.75;91.9
64023;BME280;50264;52.088;5.296;2023-02-15T07:27:36;102641.00000000001;;;0.69;91.84
64023;BME280;50264;52.088;5.296;2023-02-15T07:29:14;102642.0;;;0.74;91.78
64023;BME280;50264;52.088;5.296;2023-02-15T07:30:50;102641.00000000001;;;0.69;91.83
64023;BME280;50264;52.088;5.296;2023-02-15T07:34:05;102632.0;;;0.64;91.9
64023;BME280;50264;52.088;5.296;2023-02-15T07:35:46;102631.0;;;0.71;92.16
64023;BME280;50264;52.088;5.296;2023-02-15T07:37:24;102630.0;;;0.7;92.33
64023;BME280;50264;52.088;5.296;2023-02-15T07:39:00;102633.0;;;0.76;92.45
64023;BME280;50264;52.088;5.296;2023-02-15T07:42:13;102632.0;;;0.76;92.37
64023;BME280;50264;52.088;5.296;2023-02-15T07:43:49;102629.0;;;0.81;92.6
64023;BME280;50264;52.088;5.296;2023-02-15T07:45:25;102628.0;;;0.89;93.27
64023;BME280;50264;52.088;5.296;2023-02-15T07:48:39;102622.0;;;0.89;92.9
64023;BME280;50264;52.088;5.296;2023-02-15T07:50:16;102620.0;;;0.9;92.4
64023;BME280;50264;52.088;5.296;2023-02-15T07:51:52;102618.0;;;1.08;92.34
64023;BME280;50264;52.088;5.296;2023-02-15T07:55:06;102616.00000000001;;;1.02;92.12
64023;BME280;50264;52.088;5.296;2023-02-15T07:56:43;102613.00000000001;;;0.98;92.99
64023;BME280;50264;52.088;5.296;2023-02-15T07:58:19;102613.00000000001;;;1.04;92.73
64023;BME280;50264;52.088;5.296;2023-02-15T07:59:56;102613.00000000001;;;1.0;92.69
64023;BME280;50264;52.088;5.296;2023-02-15T08:03:15;102608.0;;;1.19;93.16
64023;BME280;50264;52.088;5.296;2023-02-15T08:04:51;102608.0;;;1.21;92.95
64023;BME280;50264;52.088;5.296;2023-02-15T08:06:29;102603.0;;;1.19;92.67
64023;BME280;50264;52.088;5.296;2023-02-15T08:09:43;102602.0;;;1.31;92.73
64023;BME280;50264;52.088;5.296;2023-02-15T08:11:30;102603.0;;;1.28;92.94
64023;BME280;50264;52.088;5.296;2023-02-15T08:13:07;102600.0;;;1.25;93.45
64023;BME280;50264;52.088;5.296;2023-02-15T08:14:43;102599.0;;;1.39;93.64
64023;BME280;50264;52.088;5.296;2023-02-15T08:18:00;102604.0;;;1.45;93.83
64023;BME280;50264;52.088;5.296;2023-02-15T08:19:36;102601.0;;;1.53;93.38
64023;BME280;50264;52.088;5.296;2023-02-15T08:21:13;102603.0;;;1.59;93.56
64023;BME280;50264;52.088;5.296;2023-02-15T08:24:27;102600.0;;;1.56;93.72
64023;BME280;50264;52.088;5.296;2023-02-15T08:26:05;102600.0;;;1.61;94.26
64023;BME280;50264;52.088;5.296;2023-02-15T08:27:41;102599.0;;;1.79;95.01
64023;BME280;50264;52.088;5.296;2023-02-15T08:29:19;102594.0;;;1.91;95.25
64023;BME280;50264;52.088;5.296;2023-02-15T08:32:40;102592.0;;;1.89;94.58
64023;BME280;50264;52.088;5.296;2023-02-15T08:34:18;102595.0;;;1.89;94.8
64023;BME280;50264;52.088;5.296;2023-02-15T08:35:55;102594.0;;;1.93;95.16
64023;BME280;50264;52.088;5.296;2023-02-15T08:37:31;102596.0;;;2.1;95.66
64023;BME280;50264;52.088;5.296;2023-02-15T08:40:44;102594.0;;;2.19;95.04
64023;BME280;50264;52.088;5.296;2023-02-15T08:42:21;102586.99999999999;;;2.25;95.86
64023;BME280;50264;52.088;5.296;2023-02-15T08:43:58;102588.00000000001;;;2.46;96.7
64023;BME280;50264;52.088;5.296;2023-02-15T08:47:13;102586.99999999999;;;2.36;95.0
64023;BME280;50264;52.088;5.296;2023-02-15T08:48:49;102586.99999999999;;;2.52;95.52
64023;BME280;50264;52.088;5.296;2023-02-15T08:50:26;102579.0;;;2.74;96.03
64023;BME280;50264;52.088;5.296;2023-02-15T08:53:39;102579.0;;;2.94;96.08
64023;BME280;50264;52.088;5.296;2023-02-15T08:55:16;102578.0;;;2.84;94.85
64023;BME280;50264;52.088;5.296;2023-02-15T08:56:52;102575.0;;;2.99;95.08
64023;BME280;50264;52.088;5.296;2023-02-15T08:58:29;102581.0;;;3.14;94.79
64023;BME280;50264;52.088;5.296;2023-02-15T09:01:44;102575.0;;;3.24;95.39
64023;BME280;50264;52.088;5.296;2023-02-15T09:03:20;102575.0;;;3.32;94.4
64023;BME280;50264;52.088;5.296;2023-02-15T09:04:56;102575.0;;;3.39;94.41
64023;BME280;50264;52.088;5.296;2023-02-15T09:08:08;102575.0;;;3.47;94.73
64023;BME280;50264;52.088;5.296;2023-02-15T09:09:45;102574.0;;;3.58;94.91
64023;BME280;50264;52.088;5.296;2023-02-15T09:11:24;102572.0;;;3.62;95.12
64023;BME280;50264;52.088;5.296;2023-02-15T09:14:38;102567.0;;;3.82;94.7
64023;BME280;50264;52.088;5.296;2023-02-15T09:16:17;102567.0;;;3.9;94.36
64023;BME280;50264;52.088;5.296;2023-02-15T09:17:53;102557.0;;;4.08;93.73
64023;BME280;50264;52.088;5.296;2023-02-15T09:19:29;102565.00000000001;;;4.16;93.38
64023;BME280;50264;52.088;5.296;2023-02-15T09:22:44;102558.99999999999;;;4.21;93.12
64023;BME280;50264;52.088;5.296;2023-02-15T09:24:22;102555.0;;;4.13;93.5
64023;BME280;50264;52.088;5.296;2023-02-15T09:26:03;102558.0;;;4.38;93.34
64023;BME280;50264;52.088;5.296;2023-02-15T09:29:16;102556.0;;;4.43;92.86
64023;BME280;50264;52.088;5.296;2023-02-15T09:30:53;102561.99999999999;;;4.46;92.58
64023;BME280;50264;52.088;5.296;2023-02-15T09:32:29;102559.99999999999;;;4.5;92.49
64023;BME280;50264;52.088;5.296;2023-02-15T09:34:05;102549.0;;;4.53;92.28
64023;BME280;50264;52.088;5.296;2023-02-15T09:37:18;102551.0;;;4.78;91.78
64023;BME280;50264;52.088;5.296;2023-02-15T09:38:56;102555.0;;;5.01;90.48
64023;BME280;50264;52.088;5.296;2023-02-15T09:40:38;102552.0;;;5.12;89.51
64023;BME280;50264;52.088;5.296;2023-02-15T09:43:04;102558.0;;;5.15;89.68
64023;BME280;50264;52.088;5.296;2023-02-15T09:45:05;102555.0;;;5.29;88.91
64023;BME280;50264;52.088;5.296;2023-02-15T09:47:24;102551.0;;;5.33;89.7
64023;BME280;50264;52.088;5.296;2023-02-15T09:49:23;102549.0;;;5.5;88.25
64023;BME280;50264;52.088;5.296;2023-02-15T09:51:15;102550.0;;;5.43;89.24
64023;BME280;50264;52.088;5.296;2023-02-15T09:53:15;102550.0;;;5.51;90.49
64023;BME280;50264;52.088;5.296;2023-02-15T09:55:09;102555.0;;;5.61;88.41
64023;BME280;50264;52.088;5.296;2023-02-15T09:58:40;102561.99999999999;;;5.66;88.86
64023;BME280;50264;52.088;5.296;2023-02-15T10:00:31;102559.99999999999;;;5.71;87.55
64023;BME280;50264;52.088;5.296;2023-02-15T10:02:24;102564.00000000001;;;5.8;88.37
64023;BME280;50264;52.088;5.296;2023-02-15T10:04:22;102570.0;;;5.98;86.37
64023;BME280;50264;52.088;5.296;2023-02-15T10:06:16;102567.0;;;6.02;85.56
64023;BME280;50264;52.088;5.296;2023-02-15T10:08:16;102567.0;;;6.15;86.67
64023;BME280;50264;52.088;5.296;2023-02-15T10:10:34;102571.0;;;6.18;86.58
64023;BME280;50264;52.088;5.296;2023-02-15T10:12:32;102572.0;;;6.37;84.9
64023;BME280;50264;52.088;5.296;2023-02-15T10:14:23;102569.0;;;6.51;86.27
64023;BME280;50264;52.088;5.296;2023-02-15T10:16:18;102566.00000000001;;;6.71;85.85
64023;BME280;50264;52.088;5.296;2023-02-15T10:18:18;102564.00000000001;;;6.81;85.1
64023;BME280;50264;52.088;5.296;2023-02-15T10:20:55;102561.99999999999;;;6.98;84.05
64023;BME280;50264;52.088;5.296;2023-02-15T10:22:45;102564.00000000001;;;7.08;84.32
64023;BME280;50264;52.088;5.296;2023-02-15T10:24:37;102566.00000000001;;;7.17;84.72
64023;BME280;50264;52.088;5.296;2023-02-15T10:26:42;102567.0;;;7.26;83.7
64023;BME280;50264;52.088;5.296;2023-02-15T10:30:09;102563.00000000001;;;7.42;81.2
64023;BME280;50264;52.088;5.296;2023-02-15T10:31:49;102567.0;;;7.54;81.77
64023;BME280;50264;52.088;5.296;2023-02-15T10:33:37;102568.0;;;7.57;79.41
64023;BME280;50264;52.088;5.296;2023-02-15T10:35:20;102567.0;;;7.61;79.75
64023;BME280;50264;52.088;5.296;2023-02-15T10:37:15;102572.0;;;7.76;77.97
64023;BME280;50264;52.088;5.296;2023-02-15T10:40:01;102566.00000000001;;;7.91;76.99
64023;BME280;50264;52.088;5.296;2023-02-15T10:41:47;102564.00000000001;;;7.96;77.53
64023;BME280;50264;52.088;5.296;2023-02-15T10:43:43;102566.00000000001;;;8.06;76.27
64023;BME280;50264;52.088;5.296;2023-02-15T10:45:31;102564.00000000001;;;8.08;76.81
64023;BME280;50264;52.088;5.296;2023-02-15T10:49:29;102569.0;;;8.19;76.69
64023;BME280;50264;52.088;5.296;2023-02-15T10:51:50;102567.0;;;8.36;77.56
64023;BME280;50264;52.088;5.296;2023-02-15T10:53:50;102570.0;;;8.47;74.91
64023;BME280;50264;52.088;5.296;2023-02-15T10:56:05;102563.00000000001;;;8.57;75.75
64023;BME280;50264;52.088;5.296;2023-02-15T10:57:52;102555.0;;;8.73;75.66
64023;BME280;50264;52.088;5.296;2023-02-15T11:01:43;102558.0;;;8.85;74.08
64023;BME280;50264;52.088;5.296;2023-02-15T11:03:35;102552.0;;;8.84;72.88
64023;BME280;50264;52.088;5.296;2023-02-15T11:05:26;102551.0;;;8.8;73.55
64023;BME280;50264;52.088;5.296;2023-02-15T11:07:15;102550.0;;;8.8;73.58
64023;BME280;50264;52.088;5.296;2023-02-15T11:08:59;102549.0;;;8.82;72.37
64023;BME280;50264;52.088;5.296;2023-02-15T11:10:39;102548.0;;;8.84;72.5
64023;BME280;50264;52.088;5.296;2023-02-15T11:14:09;102540.00000000001;;;8.83;73.36
64023;BME280;50264;52.088;5.296;2023-02-15T11:15:53;102539.00000000001;;;8.98;72.38
64023;BME280;50264;52.088;5.296;2023-02-15T11:17:35;102531.0;;;9.01;72.05